createdAt,value
2022-12-09T00:01:48.277Z,18.25
2022-12-09T00:04:22.317Z,18.73
2022-12-09T00:06:57.384Z,19.02
2022-12-09T00:09:31.125Z,17.13
2022-12-09T00:12:04.896Z,18.42
2022-12-09T00:14:38.845Z,18.30
2022-12-09T00:17:12.710Z,17.85
2022-12-09T00:19:47.324Z,17.37
2022-12-09T00:22:22.467Z,16.87
2022-12-09T00:24:56.225Z,17.52
2022-12-09T00:27:29.689Z,18.27
2022-12-09T00:30:04.393Z,18.33
2022-12-09T00:32:38.596Z,17.63
2022-12-09T00:35:12.417Z,17.65
2022-12-09T00:37:47.284Z,17.63
2022-12-09T00:40:21.412Z,18.20
2022-12-09T00:42:55.241Z,18.17
2022-12-09T00:45:28.952Z,21.05
2022-12-09T00:48:02.467Z,19.43
2022-12-09T00:50:36.364Z,19.93
2022-12-09T00:53:11.221Z,18.03
2022-12-09T00:55:45.312Z,19.03
2022-12-09T00:58:19.106Z,18.90
2022-12-09T01:00:53.731Z,18.08
2022-12-09T01:03:27.614Z,19.37
2022-12-09T01:06:01.493Z,17.47
2022-12-09T01:08:39.144Z,17.43
2022-12-09T01:11:16.898Z,17.73
2022-12-09T01:13:50.987Z,16.93
2022-12-09T01:16:27.345Z,20.93
2022-12-09T01:19:03.698Z,21.53
2022-12-09T01:21:38.404Z,21.13
2022-12-09T01:24:15.307Z,20.00
2022-12-09T01:26:49.077Z,20.80
2022-12-09T01:29:22.728Z,19.25
2022-12-09T01:31:56.980Z,20.60
2022-12-09T01:34:30.646Z,23.23
2022-12-09T01:37:06.326Z,20.88
2022-12-09T01:39:42.113Z,22.23
2022-12-09T01:42:21.061Z,22.02
2022-12-09T01:47:47.665Z,21.17
2022-12-09T01:50:21.586Z,22.27
2022-12-09T01:52:56.879Z,22.00
2022-12-09T01:55:31.864Z,22.50
2022-12-09T01:58:06.521Z,21.90
2022-12-09T02:00:40.096Z,21.80
2022-12-09T02:03:14.427Z,22.25
2022-12-09T02:05:49.162Z,21.97
2022-12-09T02:08:23.256Z,20.98
2022-12-09T02:11:08.569Z,23.40
2022-12-09T02:13:48.496Z,21.23
2022-12-09T02:16:24.714Z,23.75
2022-12-09T02:19:06.453Z,22.05
2022-12-09T02:21:49.810Z,21.17
2022-12-09T02:24:31.157Z,23.02
2022-12-09T02:27:12.688Z,24.25
2022-12-09T02:30:07.404Z,21.05
2022-12-09T02:33:23.029Z,23.88
2022-12-09T02:36:03.358Z,20.92
2022-12-09T02:38:39.980Z,21.58
2022-12-09T02:41:17.764Z,23.45
2022-12-09T02:43:56.082Z,21.88
2022-12-09T02:46:30.202Z,20.65
2022-12-09T02:49:05.501Z,22.00
2022-12-09T02:51:42.393Z,22.98
2022-12-09T02:54:18.775Z,22.83
2022-12-09T02:56:56.035Z,23.73
2022-12-09T02:59:29.611Z,22.73
2022-12-09T03:02:16.724Z,24.48
2022-12-09T03:05:00.701Z,23.45
2022-12-09T03:07:43.299Z,23.98
2022-12-09T03:10:23.572Z,21.98
2022-12-09T03:13:03.827Z,21.23
2022-12-09T03:15:42.442Z,20.63
2022-12-09T03:18:20.127Z,22.60
2022-12-09T03:20:55.547Z,22.02
2022-12-09T03:23:32.761Z,23.48
2022-12-09T03:26:07.705Z,24.40
2022-12-09T03:28:45.991Z,22.52
2022-12-09T03:31:23.948Z,23.35
2022-12-09T03:34:01.288Z,22.63
2022-12-09T03:36:38.017Z,21.63
2022-12-09T03:39:17.963Z,21.90
2022-12-09T03:41:55.692Z,21.42
2022-12-09T03:44:35.878Z,21.17
2022-12-09T03:47:10.742Z,18.75
2022-12-09T03:49:44.791Z,21.20
2022-12-09T03:52:22.364Z,19.75
2022-12-09T03:55:03.034Z,20.80
2022-12-09T03:57:39.269Z,20.10
2022-12-09T04:00:13.813Z,21.75
2022-12-09T04:02:48.248Z,21.55
2022-12-09T04:05:22.606Z,21.33
2022-12-09T04:07:56.300Z,21.27
2022-12-09T04:10:31.368Z,21.27
2022-12-09T04:13:05.692Z,19.83
2022-12-09T04:15:39.436Z,20.58
2022-12-09T04:18:13.034Z,21.90
2022-12-09T04:20:46.826Z,19.55
2022-12-09T04:23:20.401Z,21.42
2022-12-09T04:25:55.374Z,21.73
2022-12-09T04:28:28.905Z,21.55
2022-12-09T04:31:02.863Z,22.38
2022-12-09T04:33:36.438Z,21.27
2022-12-09T04:36:12.626Z,20.10
2022-12-09T04:38:47.157Z,23.70
2022-12-09T04:41:22.270Z,22.90
2022-12-09T04:43:56.036Z,23.80
2022-12-09T04:46:29.863Z,20.63
2022-12-09T04:49:04.215Z,21.77
2022-12-09T04:51:40.118Z,21.15
2022-12-09T04:54:15.358Z,21.10
2022-12-09T04:56:51.000Z,22.27
2022-12-09T04:59:24.588Z,20.75
2022-12-09T05:01:58.653Z,20.05
2022-12-09T05:04:32.416Z,21.47
2022-12-09T05:07:06.918Z,21.25
2022-12-09T05:09:41.022Z,20.15
2022-12-09T05:12:16.333Z,21.85
2022-12-09T05:14:50.153Z,21.15
2022-12-09T05:17:24.659Z,22.23
2022-12-09T05:19:58.628Z,21.55
2022-12-09T05:22:32.488Z,23.25
2022-12-09T05:25:07.310Z,22.45
2022-12-09T05:27:42.867Z,21.08
2022-12-09T05:30:16.905Z,21.00
2022-12-09T05:32:50.854Z,21.42
2022-12-09T05:35:24.420Z,23.17
2022-12-09T05:37:58.413Z,21.60
2022-12-09T05:40:32.483Z,23.70
2022-12-09T05:43:07.830Z,22.95
2022-12-09T05:45:41.486Z,24.30
2022-12-09T05:48:15.675Z,23.27
2022-12-09T05:50:58.238Z,24.10
2022-12-09T05:53:32.797Z,23.85
2022-12-09T05:56:06.793Z,24.05
2022-12-09T05:58:42.155Z,23.63
2022-12-09T06:01:16.199Z,24.67
2022-12-09T06:03:51.167Z,25.60
2022-12-09T06:06:30.362Z,25.48
2022-12-09T06:09:08.660Z,25.17
2022-12-09T06:11:42.568Z,24.65
2022-12-09T06:14:17.941Z,24.30
2022-12-09T06:16:51.777Z,24.95
2022-12-09T06:19:26.033Z,25.30
2022-12-09T06:22:00.112Z,23.52
2022-12-09T06:24:35.367Z,25.25
2022-12-09T06:27:09.230Z,24.42
2022-12-09T06:29:44.586Z,23.90
2022-12-09T06:32:18.723Z,23.50
2022-12-09T06:34:53.056Z,23.85
2022-12-09T06:37:26.875Z,24.00
2022-12-09T06:40:00.765Z,24.05
2022-12-09T06:42:34.933Z,23.77
2022-12-09T06:45:11.558Z,23.02
2022-12-09T06:47:45.922Z,22.85
2022-12-09T06:50:19.943Z,21.88
2022-12-09T06:52:53.836Z,23.65
2022-12-09T06:55:27.600Z,24.52
2022-12-09T06:58:01.795Z,24.83
2022-12-09T07:00:37.737Z,24.40
2022-12-09T07:03:12.879Z,23.10
2022-12-09T07:05:47.179Z,23.80
2022-12-09T07:08:21.245Z,23.35
2022-12-09T07:10:57.078Z,23.50
2022-12-09T07:13:31.333Z,23.88
2022-12-09T07:16:07.082Z,23.45
2022-12-09T07:18:40.789Z,21.92
2022-12-09T07:21:17.599Z,23.65
2022-12-09T07:23:51.882Z,22.13
2022-12-09T07:26:25.745Z,25.55
2022-12-09T07:28:59.450Z,26.80
2022-12-09T07:31:35.525Z,23.80
2022-12-09T07:34:11.840Z,24.30
2022-12-09T07:36:46.086Z,24.00
2022-12-09T07:39:21.767Z,23.20
2022-12-09T07:41:57.713Z,23.08
2022-12-09T07:44:31.392Z,23.67
2022-12-09T07:47:07.102Z,23.48
2022-12-09T07:49:40.833Z,23.15
2022-12-09T07:52:15.739Z,23.85
2022-12-09T07:54:49.875Z,25.58
2022-12-09T07:57:23.839Z,21.95
2022-12-09T07:59:58.124Z,23.52
2022-12-09T08:02:33.629Z,23.42
2022-12-09T08:05:08.963Z,23.42
2022-12-09T08:07:44.789Z,24.38
2022-12-09T08:10:19.289Z,20.73
2022-12-09T08:12:53.578Z,22.88
2022-12-09T08:15:27.337Z,22.73
2022-12-09T08:18:02.623Z,22.33
2022-12-09T08:20:37.007Z,21.63
2022-12-09T08:23:11.040Z,21.38
2022-12-09T08:25:44.803Z,22.73
2022-12-09T08:28:19.418Z,22.38
2022-12-09T08:30:54.233Z,21.58
2022-12-09T08:33:32.809Z,22.33
2022-12-09T08:36:13.944Z,19.95
2022-12-09T08:38:49.482Z,21.13
2022-12-09T08:41:36.775Z,20.27
2022-12-09T08:44:15.397Z,19.88
2022-12-09T08:46:55.400Z,19.02
2022-12-09T08:49:33.131Z,19.73
2022-12-09T08:52:10.769Z,19.85
2022-12-09T08:54:50.549Z,19.73
2022-12-09T08:57:37.855Z,21.63
2022-12-09T09:00:15.144Z,20.08
2022-12-09T09:02:54.747Z,20.48
2022-12-09T09:05:34.198Z,19.05
2022-12-09T09:08:12.933Z,19.25
2022-12-09T09:10:50.667Z,19.13
2022-12-09T09:13:30.014Z,19.48
2022-12-09T09:16:12.454Z,19.15
2022-12-09T09:18:53.415Z,18.67
2022-12-09T09:21:34.003Z,17.98
2022-12-09T09:24:18.214Z,18.45
2022-12-09T09:26:58.278Z,18.02
2022-12-09T09:29:39.005Z,17.65
2022-12-09T09:32:18.781Z,17.70
2022-12-09T09:34:59.637Z,18.88
2022-12-09T09:37:44.581Z,18.02
2022-12-09T09:40:24.464Z,17.73
2022-12-09T09:43:01.589Z,16.80
2022-12-09T09:45:41.818Z,18.00
2022-12-09T09:48:23.142Z,17.05
2022-12-09T09:51:11.783Z,17.15
2022-12-09T09:53:54.759Z,17.83
2022-12-09T09:56:36.072Z,16.17
2022-12-09T09:59:21.628Z,19.38
2022-12-09T10:02:06.692Z,16.92
2022-12-09T10:04:52.174Z,18.55
2022-12-09T10:07:34.540Z,17.35
2022-12-09T10:10:24.381Z,18.25
2022-12-09T10:15:54.013Z,18.52
2022-12-09T10:18:33.647Z,16.48
2022-12-09T10:21:17.370Z,22.58
2022-12-09T10:23:52.829Z,17.55
2022-12-09T10:26:31.293Z,17.60
2022-12-09T10:29:15.517Z,16.02
2022-12-09T10:31:50.674Z,18.20
2022-12-09T10:34:25.993Z,16.65
2022-12-09T10:37:02.381Z,17.35
2022-12-09T10:39:36.319Z,17.38
2022-12-09T10:42:35.092Z,16.85
2022-12-09T10:45:11.551Z,16.90
2022-12-09T10:47:52.223Z,18.60
2022-12-09T10:50:31.719Z,16.85
2022-12-09T10:53:12.905Z,17.92
2022-12-09T10:55:52.295Z,15.98
2022-12-09T10:58:31.108Z,15.68
2022-12-09T11:01:12.847Z,16.98
2022-12-09T11:03:51.170Z,16.50
2022-12-09T11:06:30.491Z,15.93
2022-12-09T11:09:22.431Z,15.23
2022-12-09T11:11:58.400Z,16.08
2022-12-09T11:14:39.905Z,17.17
2022-12-09T11:17:17.833Z,16.25
2022-12-09T11:19:54.492Z,16.43
2022-12-09T11:22:39.576Z,16.33
2022-12-09T11:25:33.858Z,16.77
2022-12-09T11:28:24.643Z,15.55
2022-12-09T11:34:00.554Z,15.05
2022-12-09T11:36:42.166Z,15.32
2022-12-09T11:39:27.925Z,13.93
2022-12-09T11:42:19.804Z,13.70
2022-12-09T11:44:57.922Z,12.73
2022-12-09T11:48:12.777Z,14.93
2022-12-09T11:50:42.294Z,13.27
2022-12-09T11:53:27.307Z,14.07
2022-12-09T11:56:08.367Z,13.95
2022-12-09T11:58:46.588Z,12.95
2022-12-09T12:01:28.435Z,13.88
2022-12-09T12:04:10.561Z,14.20
2022-12-09T12:06:49.817Z,14.10
2022-12-09T12:09:28.408Z,13.88
2022-12-09T12:12:08.393Z,13.02
2022-12-09T12:14:45.273Z,13.80
2022-12-09T12:17:22.977Z,13.68
2022-12-09T12:19:58.621Z,14.30
2022-12-09T12:23:02.158Z,14.32
2022-12-09T12:25:48.564Z,13.23
2022-12-09T12:28:36.176Z,15.43
2022-12-09T12:31:25.125Z,13.60
2022-12-09T12:37:18.308Z,15.63
2022-12-09T12:40:00.224Z,15.57
2022-12-09T12:43:04.840Z,13.77
2022-12-09T12:46:05.545Z,14.05
2022-12-09T12:48:55.361Z,13.40
2022-12-09T12:51:39.240Z,14.32
2022-12-09T12:54:24.730Z,14.77
2022-12-09T12:57:09.913Z,15.55
2022-12-09T13:00:02.496Z,16.00
2022-12-09T13:02:44.980Z,15.15
2022-12-09T13:05:23.018Z,14.60
2022-12-09T13:08:01.802Z,15.82
2022-12-09T13:10:40.138Z,14.55
2022-12-09T13:13:20.193Z,14.43
2022-12-09T13:15:59.295Z,14.57
2022-12-09T13:18:36.856Z,15.43
2022-12-09T13:21:12.058Z,16.40
2022-12-09T13:24:03.943Z,15.48
2022-12-09T13:26:47.770Z,15.18
2022-12-09T13:29:31.054Z,14.40
2022-12-09T13:32:18.072Z,14.45
2022-12-09T13:34:55.376Z,15.20
2022-12-09T13:37:33.594Z,17.00
2022-12-09T13:40:30.673Z,17.02
2022-12-09T13:43:22.205Z,16.67
2022-12-09T13:45:58.792Z,16.40
2022-12-09T13:48:45.831Z,15.55
2022-12-09T13:51:21.005Z,15.98
2022-12-09T13:54:02.685Z,15.65
2022-12-09T13:56:38.169Z,15.43
2022-12-09T13:59:39.859Z,14.90
2022-12-09T14:02:21.897Z,13.75
2022-12-09T14:05:07.157Z,14.05
2022-12-09T14:07:44.203Z,13.75
2022-12-09T14:10:37.605Z,15.23
2022-12-09T14:13:29.783Z,14.65
2022-12-09T14:16:17.163Z,14.45
2022-12-09T14:18:52.758Z,14.65
2022-12-09T14:21:30.009Z,12.90
2022-12-09T14:24:33.005Z,13.70
2022-12-09T14:27:25.308Z,15.18
2022-12-09T14:30:01.296Z,13.68
2022-12-09T14:32:37.862Z,13.60
2022-12-09T14:35:26.157Z,13.48
2022-12-09T14:38:07.302Z,15.05
2022-12-09T14:41:00.759Z,12.93
2022-12-09T14:43:48.447Z,13.43
2022-12-09T14:46:27.343Z,13.40
2022-12-09T14:49:13.267Z,14.63
2022-12-09T14:51:50.129Z,16.15
2022-12-09T14:54:28.048Z,14.32
2022-12-09T14:57:06.840Z,14.20
2022-12-09T14:59:50.240Z,14.75
2022-12-09T15:02:25.892Z,15.77
2022-12-09T15:05:03.127Z,14.48
2022-12-09T15:07:36.987Z,14.15
2022-12-09T15:10:20.793Z,15.05
2022-12-09T15:12:57.115Z,12.88
2022-12-09T15:15:33.663Z,14.57
2022-12-09T15:18:15.247Z,13.43
2022-12-09T15:20:53.535Z,15.02
2022-12-09T15:23:31.712Z,14.00
2022-12-09T15:26:07.328Z,13.50
2022-12-09T15:28:48.537Z,13.70
2022-12-09T15:31:24.833Z,14.43
2022-12-09T15:34:00.880Z,15.02
2022-12-09T15:36:40.161Z,14.02
2022-12-09T15:39:20.115Z,15.23
2022-12-09T15:42:07.865Z,15.48
2022-12-09T15:44:45.921Z,15.98
2022-12-09T15:47:23.780Z,14.52
2022-12-09T15:50:03.417Z,14.63
2022-12-09T15:52:43.594Z,15.13
2022-12-09T15:55:20.570Z,15.25
2022-12-09T15:57:58.492Z,14.30
2022-12-09T16:00:32.586Z,14.80
2022-12-09T16:03:08.149Z,14.70
2022-12-09T16:05:42.316Z,15.90
2022-12-09T16:08:17.604Z,15.20
2022-12-09T16:10:53.265Z,15.52
2022-12-09T16:13:27.105Z,15.20
2022-12-09T16:16:02.645Z,14.80
2022-12-09T16:18:49.725Z,16.42
2022-12-09T16:21:28.576Z,15.30
2022-12-09T16:24:12.507Z,15.40
2022-12-09T16:26:50.378Z,16.70
2022-12-09T16:29:27.381Z,16.13
2022-12-09T16:32:28.181Z,16.23
2022-12-09T16:35:19.728Z,15.57
2022-12-09T16:38:16.081Z,15.80
2022-12-09T16:41:09.127Z,15.63
2022-12-09T16:44:00.546Z,16.45
2022-12-09T16:46:42.083Z,17.00
2022-12-09T16:49:15.664Z,16.77
2022-12-09T16:51:49.540Z,17.45
2022-12-09T16:54:23.447Z,18.40
2022-12-09T16:56:58.774Z,17.50
2022-12-09T16:59:37.914Z,17.15
2022-12-09T17:02:20.682Z,17.85
2022-12-09T17:04:54.844Z,18.20
2022-12-09T17:07:28.977Z,19.73
2022-12-09T17:10:03.064Z,19.40
2022-12-09T17:12:39.000Z,19.13
2022-12-09T17:15:16.078Z,19.27
2022-12-09T17:17:50.429Z,19.55
2022-12-09T17:20:25.924Z,18.83
2022-12-09T17:23:00.213Z,17.92
2022-12-09T17:25:34.605Z,18.70
2022-12-09T17:28:09.893Z,19.92
2022-12-09T17:30:44.533Z,17.88
2022-12-09T17:33:19.385Z,19.85
2022-12-09T17:35:54.136Z,19.80
2022-12-09T17:38:29.320Z,19.20
2022-12-09T17:41:08.581Z,20.15
2022-12-09T17:43:44.473Z,19.83
2022-12-09T17:46:19.318Z,19.58
2022-12-09T17:48:53.728Z,18.08
2022-12-09T17:51:33.935Z,18.73
2022-12-09T17:54:10.045Z,21.05
2022-12-09T17:56:44.019Z,19.83
2022-12-09T17:59:19.342Z,19.63
2022-12-09T18:01:53.383Z,19.80
2022-12-09T18:04:27.535Z,20.55
2022-12-09T18:07:01.520Z,19.45
2022-12-09T18:09:35.938Z,20.38
2022-12-09T18:12:09.765Z,20.63
2022-12-09T18:14:45.141Z,19.17
2022-12-09T18:17:19.024Z,19.63
2022-12-09T18:19:54.275Z,19.40
2022-12-09T18:22:28.208Z,20.67
2022-12-09T18:25:02.758Z,19.88
2022-12-09T18:27:36.874Z,21.55
2022-12-09T18:30:13.300Z,18.63
2022-12-09T18:32:47.119Z,18.80
2022-12-09T18:35:21.329Z,19.55
2022-12-09T18:38:07.020Z,20.48
2022-12-09T18:41:00.977Z,19.67
2022-12-09T18:43:38.444Z,21.00
2022-12-09T18:46:16.028Z,19.25
2022-12-09T18:48:56.619Z,19.05
2022-12-09T18:51:31.165Z,20.85
2022-12-09T18:54:05.791Z,19.73
2022-12-09T18:56:39.457Z,20.33
2022-12-09T18:59:13.314Z,20.13
2022-12-09T19:01:49.462Z,20.38
2022-12-09T19:04:25.202Z,21.00
2022-12-09T19:07:00.823Z,19.92
2022-12-09T19:09:36.350Z,20.23
2022-12-09T19:12:45.265Z,21.00
2022-12-09T19:15:04.871Z,21.90
2022-12-09T19:17:40.800Z,21.30
2022-12-09T19:20:14.636Z,22.02
2022-12-09T19:22:48.277Z,21.67
2022-12-09T19:25:22.041Z,20.60
2022-12-09T19:27:55.776Z,20.60
2022-12-09T19:30:29.999Z,22.10
2022-12-09T19:33:05.110Z,22.60
2022-12-09T19:35:38.619Z,22.33
2022-12-09T19:38:12.370Z,24.00
2022-12-09T19:40:45.888Z,21.38
2022-12-09T19:43:19.649Z,21.33
2022-12-09T19:45:53.099Z,21.90
2022-12-09T19:48:28.180Z,21.80
2022-12-09T19:51:07.310Z,23.90
2022-12-09T19:53:41.517Z,22.40
2022-12-09T19:56:17.286Z,23.70
2022-12-09T19:58:51.936Z,24.03
2022-12-09T20:01:28.322Z,23.13
2022-12-09T20:04:25.501Z,24.10
2022-12-09T20:07:03.566Z,23.40
2022-12-09T20:09:40.120Z,25.97
2022-12-09T20:12:13.753Z,25.15
2022-12-09T20:14:47.526Z,24.83
2022-12-09T20:17:21.027Z,24.13
2022-12-09T20:19:56.212Z,23.60
2022-12-09T20:22:30.786Z,24.97
2022-12-09T20:25:04.626Z,25.00
2022-12-09T20:27:38.335Z,24.65
2022-12-09T20:30:12.829Z,25.75
2022-12-09T20:32:48.465Z,25.27
2022-12-09T20:35:24.284Z,23.75
2022-12-09T20:37:58.286Z,24.33
2022-12-09T20:40:35.033Z,23.38
2022-12-09T20:43:11.097Z,24.60
2022-12-09T20:45:44.717Z,25.05
2022-12-09T20:48:18.246Z,22.93
2022-12-09T20:50:53.280Z,25.38
2022-12-09T20:53:26.796Z,24.25
2022-12-09T20:56:01.499Z,23.45
2022-12-09T20:58:35.106Z,24.33
2022-12-09T21:01:12.188Z,23.77
2022-12-09T21:03:46.281Z,26.08
2022-12-09T21:06:23.317Z,26.65
2022-12-09T21:08:57.773Z,24.70
2022-12-09T21:11:32.426Z,26.92
2022-12-09T21:14:07.811Z,29.33
2022-12-09T21:16:43.908Z,29.35
2022-12-09T21:19:22.496Z,27.73
2022-12-09T21:24:30.778Z,26.40
2022-12-09T21:27:04.689Z,27.90
2022-12-09T21:29:39.082Z,28.63
2022-12-09T21:32:13.043Z,28.52
2022-12-09T21:34:46.630Z,29.08
2022-12-09T21:37:21.658Z,29.27
2022-12-09T21:39:55.097Z,28.40
2022-12-09T21:42:28.718Z,30.00
2022-12-09T21:45:02.280Z,30.27
2022-12-09T21:47:36.221Z,30.33
2022-12-09T21:50:10.564Z,28.88
2022-12-09T21:52:45.767Z,29.17
2022-12-09T21:55:19.246Z,29.30
2022-12-09T21:57:52.905Z,30.35
2022-12-09T22:00:26.333Z,28.20
2022-12-09T22:03:00.023Z,27.25
2022-12-09T22:05:34.220Z,28.95
2022-12-09T22:08:09.378Z,27.60
2022-12-09T22:10:43.176Z,27.30
2022-12-09T22:13:16.827Z,29.23
2022-12-09T22:15:50.395Z,27.38
2022-12-09T22:18:24.146Z,27.90
2022-12-09T22:21:24.273Z,28.50
2022-12-09T22:23:54.126Z,29.17
2022-12-09T22:26:28.404Z,28.83
2022-12-09T22:29:03.510Z,28.08
2022-12-09T22:31:39.360Z,28.27
2022-12-09T22:34:15.969Z,27.37
2022-12-09T22:36:50.344Z,28.02
2022-12-09T22:39:25.347Z,28.17
2022-12-09T22:41:58.813Z,27.20
2022-12-09T22:44:32.993Z,26.63
2022-12-09T22:47:07.083Z,27.50
2022-12-09T22:49:40.805Z,26.57
2022-12-09T22:52:14.359Z,25.73
2022-12-09T22:54:49.447Z,26.40
2022-12-09T22:57:22.962Z,26.55
2022-12-09T22:59:56.761Z,26.48
2022-12-09T23:02:30.306Z,27.02
2022-12-09T23:05:04.273Z,26.80
2022-12-09T23:07:37.988Z,27.33
2022-12-09T23:10:13.100Z,26.20
2022-12-09T23:12:46.714Z,26.40
2022-12-09T23:15:20.439Z,27.15
2022-12-09T23:17:53.927Z,26.40
2022-12-09T23:20:28.432Z,26.38
2022-12-09T23:23:02.064Z,27.37
2022-12-09T23:25:37.144Z,26.70
2022-12-09T23:28:11.745Z,26.85
2022-12-09T23:30:45.606Z,26.70
2022-12-09T23:33:19.118Z,27.60
2022-12-09T23:35:52.805Z,27.23
2022-12-09T23:38:26.237Z,27.67
2022-12-09T23:41:01.379Z,28.57
2022-12-09T23:43:36.284Z,27.80
2022-12-09T23:46:15.644Z,27.13
2022-12-09T23:48:50.704Z,24.65
2022-12-09T23:51:26.879Z,25.70
2022-12-09T23:54:02.672Z,25.20
2022-12-09T23:56:43.600Z,24.77
2022-12-09T23:59:19.548Z,22.53
